sensor_id;sensor_type;location;lat;lon;timestamp;temperature;humidity
67273;DHT22;54190;49.770;9.250;2022-09-09T00:00:47;15.20;99.90
67273;DHT22;54190;49.770;9.250;2022-09-09T00:03:19;15.20;99.90
67273;DHT22;54190;49.770;9.250;2022-09-09T00:08:54;15.10;99.90
67273;DHT22;54190;49.770;9.250;2022-09-09T00:11:39;15.10;99.90
67273;DHT22;54190;49.770;9.250;2022-09-09T00:14:14;15.10;99.90
67273;DHT22;54190;49.770;9.250;2022-09-09T00:16:47;15.10;99.90
67273;DHT22;54190;49.770;9.250;2022-09-09T00:19:19;15.10;99.90
67273;DHT22;54190;49.770;9.250;2022-09-09T00:22:00;15.10;99.90
67273;DHT22;54190;49.770;9.250;2022-09-09T00:24:38;15.10;99.90
67273;DHT22;54190;49.770;9.250;2022-09-09T00:27:11;15.20;99.90
67273;DHT22;54190;49.770;9.250;2022-09-09T00:30:12;15.20;99.90
67273;DHT22;54190;49.770;9.250;2022-09-09T00:32:33;15.20;99.90
67273;DHT22;54190;49.770;9.250;2022-09-09T00:35:32;15.20;99.90
67273;DHT22;54190;49.770;9.250;2022-09-09T00:41:22;15.20;99.90
67273;DHT22;54190;49.770;9.250;2022-09-09T00:44:03;15.20;99.90
67273;DHT22;54190;49.770;9.250;2022-09-09T00:47:04;15.30;99.90
67273;DHT22;54190;49.770;9.250;2022-09-09T00:55:04;15.20;99.90
67273;DHT22;54190;49.770;9.250;2022-09-09T00:57:33;15.20;99.90
67273;DHT22;54190;49.770;9.250;2022-09-09T01:03:02;15.10;99.90
67273;DHT22;54190;49.770;9.250;2022-09-09T01:11:23;15.20;99.90
67273;DHT22;54190;49.770;9.250;2022-09-09T01:16:47;15.20;99.90
67273;DHT22;54190;49.770;9.250;2022-09-09T01:19:24;15.20;99.90
67273;DHT22;54190;49.770;9.250;2022-09-09T01:22:01;15.30;99.90
67273;DHT22;54190;49.770;9.250;2022-09-09T01:27:48;15.20;99.90
67273;DHT22;54190;49.770;9.250;2022-09-09T01:30:17;15.20;99.90
67273;DHT22;54190;49.770;9.250;2022-09-09T01:32:44;15.20;99.90
67273;DHT22;54190;49.770;9.250;2022-09-09T01:38:00;15.20;99.90
67273;DHT22;54190;49.770;9.250;2022-09-09T01:40:26;15.20;99.90
67273;DHT22;54190;49.770;9.250;2022-09-09T01:42:53;15.20;99.90
67273;DHT22;54190;49.770;9.250;2022-09-09T01:45:21;15.20;99.90
67273;DHT22;54190;49.770;9.250;2022-09-09T01:47:47;15.20;99.90
67273;DHT22;54190;49.770;9.250;2022-09-09T01:50:20;15.20;99.90
67273;DHT22;54190;49.770;9.250;2022-09-09T01:52:52;15.20;99.90
67273;DHT22;54190;49.770;9.250;2022-09-09T01:55:32;15.20;99.90
67273;DHT22;54190;49.770;9.250;2022-09-09T02:03:56;15.20;99.90
67273;DHT22;54190;49.770;9.250;2022-09-09T02:06:35;15.30;99.90
67273;DHT22;54190;49.770;9.250;2022-09-09T02:09:16;15.30;99.90
67273;DHT22;54190;49.770;9.250;2022-09-09T02:11:47;15.30;99.90
67273;DHT22;54190;49.770;9.250;2022-09-09T02:14:25;15.30;99.90
67273;DHT22;54190;49.770;9.250;2022-09-09T02:16:53;15.30;99.90
67273;DHT22;54190;49.770;9.250;2022-09-09T02:19:27;15.30;99.90
67273;DHT22;54190;49.770;9.250;2022-09-09T02:22:07;15.30;99.90
67273;DHT22;54190;49.770;9.250;2022-09-09T02:24:37;15.30;99.90
67273;DHT22;54190;49.770;9.250;2022-09-09T02:27:12;15.30;99.90
67273;DHT22;54190;49.770;9.250;2022-09-09T02:29:42;15.30;99.90
67273;DHT22;54190;49.770;9.250;2022-09-09T02:32:12;15.20;99.90
67273;DHT22;54190;49.770;9.250;2022-09-09T02:34:43;15.20;99.90
67273;DHT22;54190;49.770;9.250;2022-09-09T02:37:11;15.20;99.90
67273;DHT22;54190;49.770;9.250;2022-09-09T02:39:40;15.20;99.90
67273;DHT22;54190;49.770;9.250;2022-09-09T02:42:10;15.20;99.90
67273;DHT22;54190;49.770;9.250;2022-09-09T02:44:36;15.20;99.90
67273;DHT22;54190;49.770;9.250;2022-09-09T02:47:24;15.20;99.90
67273;DHT22;54190;49.770;9.250;2022-09-09T02:50:19;15.20;99.90
67273;DHT22;54190;49.770;9.250;2022-09-09T02:53:12;15.20;99.90
67273;DHT22;54190;49.770;9.250;2022-09-09T02:55:48;15.20;99.90
67273;DHT22;54190;49.770;9.250;2022-09-09T02:58:19;15.20;99.90
67273;DHT22;54190;49.770;9.250;2022-09-09T03:00:53;15.20;99.90
67273;DHT22;54190;49.770;9.250;2022-09-09T03:03:20;15.20;99.90
67273;DHT22;54190;49.770;9.250;2022-09-09T03:05:49;15.20;99.90
67273;DHT22;54190;49.770;9.250;2022-09-09T03:08:15;15.10;99.90
67273;DHT22;54190;49.770;9.250;2022-09-09T03:10:42;15.10;99.90
67273;DHT22;54190;49.770;9.250;2022-09-09T03:13:10;15.20;99.90
67273;DHT22;54190;49.770;9.250;2022-09-09T03:15:39;15.20;99.90
67273;DHT22;54190;49.770;9.250;2022-09-09T03:18:07;15.20;99.90
67273;DHT22;54190;49.770;9.250;2022-09-09T03:20:33;15.20;99.90
67273;DHT22;54190;49.770;9.250;2022-09-09T03:23:00;15.20;99.90
67273;DHT22;54190;49.770;9.250;2022-09-09T03:25:26;15.20;99.90
67273;DHT22;54190;49.770;9.250;2022-09-09T03:27:53;15.20;99.90
67273;DHT22;54190;49.770;9.250;2022-09-09T03:30:23;15.30;99.90
67273;DHT22;54190;49.770;9.250;2022-09-09T03:32:49;15.30;99.90
67273;DHT22;54190;49.770;9.250;2022-09-09T03:35:16;15.30;99.90
67273;DHT22;54190;49.770;9.250;2022-09-09T03:37:42;15.20;99.90
67273;DHT22;54190;49.770;9.250;2022-09-09T03:40:10;15.20;99.90
67273;DHT22;54190;49.770;9.250;2022-09-09T03:42:37;15.20;99.90
67273;DHT22;54190;49.770;9.250;2022-09-09T03:45:08;15.30;99.90
67273;DHT22;54190;49.770;9.250;2022-09-09T03:47:36;15.30;99.90
67273;DHT22;54190;49.770;9.250;2022-09-09T03:50:06;15.20;99.90
67273;DHT22;54190;49.770;9.250;2022-09-09T03:52:39;15.20;99.90
67273;DHT22;54190;49.770;9.250;2022-09-09T03:55:11;15.20;99.90
67273;DHT22;54190;49.770;9.250;2022-09-09T03:57:37;15.20;99.90
67273;DHT22;54190;49.770;9.250;2022-09-09T04:00:07;15.20;99.90
67273;DHT22;54190;49.770;9.250;2022-09-09T04:02:42;15.10;99.90
67273;DHT22;54190;49.770;9.250;2022-09-09T04:05:09;15.00;99.90
67273;DHT22;54190;49.770;9.250;2022-09-09T04:07:37;15.00;99.90
67273;DHT22;54190;49.770;9.250;2022-09-09T04:10:03;15.00;99.90
67273;DHT22;54190;49.770;9.250;2022-09-09T04:12:29;15.00;99.90
67273;DHT22;54190;49.770;9.250;2022-09-09T04:14:55;15.00;99.90
67273;DHT22;54190;49.770;9.250;2022-09-09T04:17:21;15.10;99.90
67273;DHT22;54190;49.770;9.250;2022-09-09T04:19:47;15.10;99.90
67273;DHT22;54190;49.770;9.250;2022-09-09T04:22:15;15.20;99.90
67273;DHT22;54190;49.770;9.250;2022-09-09T04:24:41;15.00;99.90
67273;DHT22;54190;49.770;9.250;2022-09-09T04:27:07;15.00;99.90
67273;DHT22;54190;49.770;9.250;2022-09-09T04:29:35;14.90;99.90
67273;DHT22;54190;49.770;9.250;2022-09-09T04:32:01;14.80;99.90
67273;DHT22;54190;49.770;9.250;2022-09-09T04:34:31;14.80;99.90
67273;DHT22;54190;49.770;9.250;2022-09-09T04:36:58;14.80;99.90
67273;DHT22;54190;49.770;9.250;2022-09-09T04:39:27;14.80;99.90
67273;DHT22;54190;49.770;9.250;2022-09-09T04:41:53;14.90;99.90
67273;DHT22;54190;49.770;9.250;2022-09-09T04:44:21;14.80;99.90
67273;DHT22;54190;49.770;9.250;2022-09-09T04:46:47;14.80;99.90
67273;DHT22;54190;49.770;9.250;2022-09-09T04:49:13;14.80;99.90
67273;DHT22;54190;49.770;9.250;2022-09-09T04:51:38;14.70;99.90
67273;DHT22;54190;49.770;9.250;2022-09-09T04:54:04;14.70;99.90
67273;DHT22;54190;49.770;9.250;2022-09-09T04:56:31;14.80;99.90
67273;DHT22;54190;49.770;9.250;2022-09-09T04:58:58;14.80;99.90
67273;DHT22;54190;49.770;9.250;2022-09-09T05:01:35;14.90;99.90
67273;DHT22;54190;49.770;9.250;2022-09-09T05:04:04;14.80;99.90
67273;DHT22;54190;49.770;9.250;2022-09-09T05:06:31;14.80;99.90
67273;DHT22;54190;49.770;9.250;2022-09-09T05:08:59;14.80;99.90
67273;DHT22;54190;49.770;9.250;2022-09-09T05:11:30;14.80;99.90
67273;DHT22;54190;49.770;9.250;2022-09-09T05:14:00;14.70;99.90
67273;DHT22;54190;49.770;9.250;2022-09-09T05:16:28;14.70;99.90
67273;DHT22;54190;49.770;9.250;2022-09-09T05:18:55;14.60;99.90
67273;DHT22;54190;49.770;9.250;2022-09-09T05:21:22;14.60;99.90
67273;DHT22;54190;49.770;9.250;2022-09-09T05:23:48;14.50;99.90
67273;DHT22;54190;49.770;9.250;2022-09-09T05:26:19;14.50;99.90
67273;DHT22;54190;49.770;9.250;2022-09-09T05:28:47;14.60;99.90
67273;DHT22;54190;49.770;9.250;2022-09-09T05:31:14;14.50;99.90
67273;DHT22;54190;49.770;9.250;2022-09-09T05:33:43;14.50;99.90
67273;DHT22;54190;49.770;9.250;2022-09-09T05:36:21;14.50;99.90
67273;DHT22;54190;49.770;9.250;2022-09-09T05:38:50;14.50;99.90
67273;DHT22;54190;49.770;9.250;2022-09-09T05:41:17;14.50;99.90
67273;DHT22;54190;49.770;9.250;2022-09-09T05:43:44;14.50;99.90
67273;DHT22;54190;49.770;9.250;2022-09-09T05:46:19;14.60;99.90
67273;DHT22;54190;49.770;9.250;2022-09-09T05:48:48;14.60;99.90
67273;DHT22;54190;49.770;9.250;2022-09-09T05:51:19;14.60;99.90
67273;DHT22;54190;49.770;9.250;2022-09-09T05:53:46;14.60;99.90
67273;DHT22;54190;49.770;9.250;2022-09-09T05:56:15;14.60;99.90
67273;DHT22;54190;49.770;9.250;2022-09-09T05:58:42;14.60;99.90
67273;DHT22;54190;49.770;9.250;2022-09-09T06:01:18;14.70;99.90
67273;DHT22;54190;49.770;9.250;2022-09-09T06:03:45;14.70;99.90
67273;DHT22;54190;49.770;9.250;2022-09-09T06:06:14;14.70;99.90
67273;DHT22;54190;49.770;9.250;2022-09-09T06:08:42;14.80;99.90
67273;DHT22;54190;49.770;9.250;2022-09-09T06:11:15;14.80;99.90
67273;DHT22;54190;49.770;9.250;2022-09-09T06:13:42;14.90;99.90
67273;DHT22;54190;49.770;9.250;2022-09-09T06:16:19;14.90;99.90
67273;DHT22;54190;49.770;9.250;2022-09-09T06:18:45;14.90;99.90
67273;DHT22;54190;49.770;9.250;2022-09-09T06:21:23;15.00;99.90
67273;DHT22;54190;49.770;9.250;2022-09-09T06:23:50;15.00;99.90
67273;DHT22;54190;49.770;9.250;2022-09-09T06:26:21;15.00;99.90
67273;DHT22;54190;49.770;9.250;2022-09-09T06:28:50;15.10;99.90
67273;DHT22;54190;49.770;9.250;2022-09-09T06:31:18;15.10;99.90
67273;DHT22;54190;49.770;9.250;2022-09-09T06:33:49;15.20;99.90
67273;DHT22;54190;49.770;9.250;2022-09-09T06:36:18;15.30;99.90
67273;DHT22;54190;49.770;9.250;2022-09-09T06:38:45;15.30;99.90
67273;DHT22;54190;49.770;9.250;2022-09-09T06:41:14;15.30;99.90
67273;DHT22;54190;49.770;9.250;2022-09-09T06:43:42;15.40;99.90
67273;DHT22;54190;49.770;9.250;2022-09-09T06:46:21;15.50;99.90
67273;DHT22;54190;49.770;9.250;2022-09-09T06:48:53;15.60;99.90
67273;DHT22;54190;49.770;9.250;2022-09-09T06:51:34;15.70;99.90
67273;DHT22;54190;49.770;9.250;2022-09-09T06:54:03;15.80;99.90
67273;DHT22;54190;49.770;9.250;2022-09-09T06:56:34;15.90;99.90
67273;DHT22;54190;49.770;9.250;2022-09-09T06:59:04;16.10;99.90
67273;DHT22;54190;49.770;9.250;2022-09-09T07:01:37;16.20;99.90
67273;DHT22;54190;49.770;9.250;2022-09-09T07:04:08;16.30;99.90
67273;DHT22;54190;49.770;9.250;2022-09-09T07:06:41;16.40;99.90
67273;DHT22;54190;49.770;9.250;2022-09-09T07:09:11;16.40;99.90
67273;DHT22;54190;49.770;9.250;2022-09-09T07:11:41;16.40;99.90
67273;DHT22;54190;49.770;9.250;2022-09-09T07:14:08;16.40;99.90
67273;DHT22;54190;49.770;9.250;2022-09-09T07:16:34;16.40;99.90
67273;DHT22;54190;49.770;9.250;2022-09-09T07:19:03;16.40;99.90
67273;DHT22;54190;49.770;9.250;2022-09-09T07:21:31;16.40;99.90
67273;DHT22;54190;49.770;9.250;2022-09-09T07:23:57;16.40;99.90
67273;DHT22;54190;49.770;9.250;2022-09-09T07:26:26;16.40;99.90
67273;DHT22;54190;49.770;9.250;2022-09-09T07:28:53;16.50;99.90
67273;DHT22;54190;49.770;9.250;2022-09-09T07:31:27;16.50;99.90
67273;DHT22;54190;49.770;9.250;2022-09-09T07:33:54;16.50;99.90
67273;DHT22;54190;49.770;9.250;2022-09-09T07:36:25;16.60;99.90
67273;DHT22;54190;49.770;9.250;2022-09-09T07:39:01;16.70;99.90
67273;DHT22;54190;49.770;9.250;2022-09-09T07:41:42;16.80;99.90
67273;DHT22;54190;49.770;9.250;2022-09-09T07:44:12;16.90;99.90
67273;DHT22;54190;49.770;9.250;2022-09-09T07:46:39;17.10;99.90
67273;DHT22;54190;49.770;9.250;2022-09-09T07:49:08;17.20;99.90
67273;DHT22;54190;49.770;9.250;2022-09-09T07:51:36;17.30;99.90
67273;DHT22;54190;49.770;9.250;2022-09-09T07:54:05;17.40;99.90
67273;DHT22;54190;49.770;9.250;2022-09-09T07:56:32;17.40;99.90
67273;DHT22;54190;49.770;9.250;2022-09-09T07:58:59;17.40;99.90
67273;DHT22;54190;49.770;9.250;2022-09-09T08:01:31;17.40;99.90
67273;DHT22;54190;49.770;9.250;2022-09-09T08:04:03;17.40;99.90
67273;DHT22;54190;49.770;9.250;2022-09-09T08:06:33;17.40;99.90
67273;DHT22;54190;49.770;9.250;2022-09-09T08:09:00;17.40;99.90
67273;DHT22;54190;49.770;9.250;2022-09-09T08:11:27;17.50;99.90
67273;DHT22;54190;49.770;9.250;2022-09-09T08:13:55;17.50;99.90
67273;DHT22;54190;49.770;9.250;2022-09-09T08:16:26;17.50;99.90
67273;DHT22;54190;49.770;9.250;2022-09-09T08:18:53;17.60;99.90
67273;DHT22;54190;49.770;9.250;2022-09-09T08:21:23;17.70;99.90
67273;DHT22;54190;49.770;9.250;2022-09-09T08:23:52;17.90;99.90
67273;DHT22;54190;49.770;9.250;2022-09-09T08:26:30;18.10;99.90
67273;DHT22;54190;49.770;9.250;2022-09-09T08:28:58;18.30;99.90
67273;DHT22;54190;49.770;9.250;2022-09-09T08:31:34;18.40;99.90
67273;DHT22;54190;49.770;9.250;2022-09-09T08:34:01;18.50;99.90
67273;DHT22;54190;49.770;9.250;2022-09-09T08:36:40;18.60;99.90
67273;DHT22;54190;49.770;9.250;2022-09-09T08:39:08;18.70;99.90
67273;DHT22;54190;49.770;9.250;2022-09-09T08:44:13;18.70;99.90
67273;DHT22;54190;49.770;9.250;2022-09-09T08:51:57;18.70;99.90
67273;DHT22;54190;49.770;9.250;2022-09-09T08:54:25;18.80;99.90
67273;DHT22;54190;49.770;9.250;2022-09-09T08:56:53;18.90;99.90
67273;DHT22;54190;49.770;9.250;2022-09-09T08:59:19;19.00;99.90
67273;DHT22;54190;49.770;9.250;2022-09-09T09:05:19;19.20;99.90
67273;DHT22;54190;49.770;9.250;2022-09-09T09:08:03;19.30;99.90
67273;DHT22;54190;49.770;9.250;2022-09-09T09:13:34;19.30;99.90
67273;DHT22;54190;49.770;9.250;2022-09-09T09:18:59;19.20;99.90
67273;DHT22;54190;49.770;9.250;2022-09-09T09:21:42;19.30;99.90
67273;DHT22;54190;49.770;9.250;2022-09-09T09:24:41;19.40;99.90
67273;DHT22;54190;49.770;9.250;2022-09-09T09:27:18;19.60;99.40
67273;DHT22;54190;49.770;9.250;2022-09-09T09:29:50;19.70;99.40
67273;DHT22;54190;49.770;9.250;2022-09-09T09:32:19;19.80;99.10
67273;DHT22;54190;49.770;9.250;2022-09-09T09:34:56;20.00;98.60
67273;DHT22;54190;49.770;9.250;2022-09-09T09:37:31;19.90;98.10
67273;DHT22;54190;49.770;9.250;2022-09-09T09:40:14;19.70;98.70
67273;DHT22;54190;49.770;9.250;2022-09-09T09:42:54;19.60;99.30
67273;DHT22;54190;49.770;9.250;2022-09-09T09:45:43;19.40;99.60
67273;DHT22;54190;49.770;9.250;2022-09-09T09:48:13;19.30;99.90
67273;DHT22;54190;49.770;9.250;2022-09-09T09:51:00;19.00;99.90
67273;DHT22;54190;49.770;9.250;2022-09-09T09:53:28;18.70;99.90
67273;DHT22;54190;49.770;9.250;2022-09-09T09:56:03;18.60;99.90
67273;DHT22;54190;49.770;9.250;2022-09-09T09:58:33;18.40;99.90
67273;DHT22;54190;49.770;9.250;2022-09-09T10:01:01;18.40;99.90
67273;DHT22;54190;49.770;9.250;2022-09-09T10:03:33;18.40;99.90
67273;DHT22;54190;49.770;9.250;2022-09-09T10:06:05;18.50;99.90
67273;DHT22;54190;49.770;9.250;2022-09-09T10:08:34;18.60;99.90
67273;DHT22;54190;49.770;9.250;2022-09-09T10:14:08;19.10;99.90
67273;DHT22;54190;49.770;9.250;2022-09-09T10:20:32;19.60;99.90
67273;DHT22;54190;49.770;9.250;2022-09-09T10:22:44;19.80;99.90
67273;DHT22;54190;49.770;9.250;2022-09-09T10:33:37;20.20;99.90
67273;DHT22;54190;49.770;9.250;2022-09-09T10:36:21;20.40;99.80
67273;DHT22;54190;49.770;9.250;2022-09-09T10:38:52;20.60;99.30
67273;DHT22;54190;49.770;9.250;2022-09-09T10:41:40;20.60;98.90
67273;DHT22;54190;49.770;9.250;2022-09-09T10:44:13;20.70;98.90
67273;DHT22;54190;49.770;9.250;2022-09-09T10:47:08;20.90;98.30
67273;DHT22;54190;49.770;9.250;2022-09-09T10:52:32;21.10;98.60
67273;DHT22;54190;49.770;9.250;2022-09-09T10:57:53;21.10;97.00
67273;DHT22;54190;49.770;9.250;2022-09-09T11:00:22;20.90;97.20
67273;DHT22;54190;49.770;9.250;2022-09-09T11:02:56;20.70;97.00
67273;DHT22;54190;49.770;9.250;2022-09-09T11:05:43;20.50;97.60
67273;DHT22;54190;49.770;9.250;2022-09-09T11:08:25;20.30;97.60
67273;DHT22;54190;49.770;9.250;2022-09-09T11:16:34;19.50;99.90
67273;DHT22;54190;49.770;9.250;2022-09-09T11:21:45;19.30;99.90
67273;DHT22;54190;49.770;9.250;2022-09-09T11:24:38;19.30;99.90
67273;DHT22;54190;49.770;9.250;2022-09-09T11:27:23;19.40;99.90
67273;DHT22;54190;49.770;9.250;2022-09-09T11:33:14;19.70;99.90
67273;DHT22;54190;49.770;9.250;2022-09-09T11:41:09;20.20;99.90
67273;DHT22;54190;49.770;9.250;2022-09-09T11:43:46;20.30;99.80
67273;DHT22;54190;49.770;9.250;2022-09-09T11:46:14;20.40;99.90
67273;DHT22;54190;49.770;9.250;2022-09-09T11:48:44;20.50;99.70
67273;DHT22;54190;49.770;9.250;2022-09-09T11:53:51;20.70;98.20
67273;DHT22;54190;49.770;9.250;2022-09-09T11:59:04;20.90;99.00
67273;DHT22;54190;49.770;9.250;2022-09-09T12:04:14;21.20;98.20
67273;DHT22;54190;49.770;9.250;2022-09-09T12:09:30;21.60;97.20
67273;DHT22;54190;49.770;9.250;2022-09-09T12:19:40;21.90;94.70
67273;DHT22;54190;49.770;9.250;2022-09-09T12:28:09;22.30;93.90
67273;DHT22;54190;49.770;9.250;2022-09-09T12:33:34;22.30;91.60
67273;DHT22;54190;49.770;9.250;2022-09-09T12:36:01;22.50;91.00
67273;DHT22;54190;49.770;9.250;2022-09-09T12:38:36;22.40;92.30
67273;DHT22;54190;49.770;9.250;2022-09-09T12:41:02;22.40;92.20
67273;DHT22;54190;49.770;9.250;2022-09-09T12:43:28;22.40;91.10
67273;DHT22;54190;49.770;9.250;2022-09-09T12:46:01;22.30;90.60
67273;DHT22;54190;49.770;9.250;2022-09-09T12:48:35;22.20;90.00
67273;DHT22;54190;49.770;9.250;2022-09-09T12:51:02;22.00;88.00
67273;DHT22;54190;49.770;9.250;2022-09-09T12:53:36;21.80;89.30
67273;DHT22;54190;49.770;9.250;2022-09-09T12:56:22;21.70;90.40
67273;DHT22;54190;49.770;9.250;2022-09-09T12:58:51;21.60;90.60
67273;DHT22;54190;49.770;9.250;2022-09-09T13:01:25;21.60;90.70
67273;DHT22;54190;49.770;9.250;2022-09-09T13:03:52;21.70;90.90
67273;DHT22;54190;49.770;9.250;2022-09-09T13:06:24;21.70;91.30
67273;DHT22;54190;49.770;9.250;2022-09-09T13:08:51;21.70;90.70
67273;DHT22;54190;49.770;9.250;2022-09-09T13:11:41;21.60;90.50
67273;DHT22;54190;49.770;9.250;2022-09-09T13:14:05;21.50;91.20
67273;DHT22;54190;49.770;9.250;2022-09-09T13:16:34;21.40;91.20
67273;DHT22;54190;49.770;9.250;2022-09-09T13:19:14;21.30;91.00
67273;DHT22;54190;49.770;9.250;2022-09-09T13:21:41;21.20;91.20
67273;DHT22;54190;49.770;9.250;2022-09-09T13:24:40;21.10;91.10
67273;DHT22;54190;49.770;9.250;2022-09-09T13:27:28;21.00;91.50
67273;DHT22;54190;49.770;9.250;2022-09-09T13:29:55;20.90;91.60
67273;DHT22;54190;49.770;9.250;2022-09-09T13:32:23;20.90;92.00
67273;DHT22;54190;49.770;9.250;2022-09-09T13:35:00;20.80;92.40
67273;DHT22;54190;49.770;9.250;2022-09-09T13:37:36;20.60;93.80
67273;DHT22;54190;49.770;9.250;2022-09-09T13:40:04;20.30;96.40
67273;DHT22;54190;49.770;9.250;2022-09-09T13:42:37;20.10;97.20
67273;DHT22;54190;49.770;9.250;2022-09-09T13:45:04;19.70;99.10
67273;DHT22;54190;49.770;9.250;2022-09-09T13:47:33;19.40;99.90
67273;DHT22;54190;49.770;9.250;2022-09-09T13:50:22;19.20;99.90
67273;DHT22;54190;49.770;9.250;2022-09-09T13:52:49;19.10;99.90
67273;DHT22;54190;49.770;9.250;2022-09-09T13:55:30;19.00;99.90
67273;DHT22;54190;49.770;9.250;2022-09-09T13:57:58;18.90;99.90
67273;DHT22;54190;49.770;9.250;2022-09-09T14:00:27;18.90;99.90
67273;DHT22;54190;49.770;9.250;2022-09-09T14:02:54;18.90;99.90
67273;DHT22;54190;49.770;9.250;2022-09-09T14:05:23;18.90;99.90
67273;DHT22;54190;49.770;9.250;2022-09-09T14:07:49;19.00;99.90
67273;DHT22;54190;49.770;9.250;2022-09-09T14:10:16;19.00;99.90
67273;DHT22;54190;49.770;9.250;2022-09-09T14:12:41;19.00;99.90
67273;DHT22;54190;49.770;9.250;2022-09-09T14:15:10;19.00;99.90
67273;DHT22;54190;49.770;9.250;2022-09-09T14:17:35;19.00;99.90
67273;DHT22;54190;49.770;9.250;2022-09-09T14:20:03;19.00;99.90
67273;DHT22;54190;49.770;9.250;2022-09-09T14:22:33;19.00;99.90
67273;DHT22;54190;49.770;9.250;2022-09-09T14:24:59;19.00;99.90
67273;DHT22;54190;49.770;9.250;2022-09-09T14:27:25;19.00;99.90
67273;DHT22;54190;49.770;9.250;2022-09-09T14:29:55;19.00;99.90
67273;DHT22;54190;49.770;9.250;2022-09-09T14:32:21;18.90;99.90
67273;DHT22;54190;49.770;9.250;2022-09-09T14:34:47;18.80;99.90
67273;DHT22;54190;49.770;9.250;2022-09-09T14:37:16;18.80;99.90
67273;DHT22;54190;49.770;9.250;2022-09-09T14:39:42;18.70;99.90
67273;DHT22;54190;49.770;9.250;2022-09-09T14:42:10;18.60;99.90
67273;DHT22;54190;49.770;9.250;2022-09-09T14:44:37;18.50;99.90
67273;DHT22;54190;49.770;9.250;2022-09-09T14:47:05;18.50;99.90
67273;DHT22;54190;49.770;9.250;2022-09-09T14:49:30;18.50;99.90
67273;DHT22;54190;49.770;9.250;2022-09-09T14:51:56;18.50;99.90
67273;DHT22;54190;49.770;9.250;2022-09-09T14:54:22;18.50;99.90
67273;DHT22;54190;49.770;9.250;2022-09-09T14:56:48;18.50;99.90
67273;DHT22;54190;49.770;9.250;2022-09-09T14:59:14;18.60;99.90
67273;DHT22;54190;49.770;9.250;2022-09-09T15:01:40;18.60;99.90
67273;DHT22;54190;49.770;9.250;2022-09-09T15:04:06;18.60;99.90
67273;DHT22;54190;49.770;9.250;2022-09-09T15:06:34;18.70;99.90
67273;DHT22;54190;49.770;9.250;2022-09-09T15:09:01;18.90;99.90
67273;DHT22;54190;49.770;9.250;2022-09-09T15:11:29;19.20;99.90
67273;DHT22;54190;49.770;9.250;2022-09-09T15:13:56;19.30;99.90
67273;DHT22;54190;49.770;9.250;2022-09-09T15:16:25;19.40;99.90
67273;DHT22;54190;49.770;9.250;2022-09-09T15:18:53;19.40;99.90
67273;DHT22;54190;49.770;9.250;2022-09-09T15:21:21;19.30;99.90
67273;DHT22;54190;49.770;9.250;2022-09-09T15:23:48;19.20;99.90
67273;DHT22;54190;49.770;9.250;2022-09-09T15:26:15;19.10;99.90
67273;DHT22;54190;49.770;9.250;2022-09-09T15:28:41;19.00;99.90
67273;DHT22;54190;49.770;9.250;2022-09-09T15:31:17;19.00;99.90
67273;DHT22;54190;49.770;9.250;2022-09-09T15:34:03;19.10;99.90
67273;DHT22;54190;49.770;9.250;2022-09-09T15:36:35;19.10;99.90
67273;DHT22;54190;49.770;9.250;2022-09-09T15:39:02;19.20;99.90
67273;DHT22;54190;49.770;9.250;2022-09-09T15:41:29;19.20;99.90
67273;DHT22;54190;49.770;9.250;2022-09-09T15:43:57;19.30;99.90
67273;DHT22;54190;49.770;9.250;2022-09-09T15:46:33;19.20;99.90
67273;DHT22;54190;49.770;9.250;2022-09-09T15:49:11;19.20;99.90
67273;DHT22;54190;49.770;9.250;2022-09-09T15:51:43;19.20;99.90
67273;DHT22;54190;49.770;9.250;2022-09-09T15:54:14;19.10;99.90
67273;DHT22;54190;49.770;9.250;2022-09-09T15:56:42;19.00;99.90
67273;DHT22;54190;49.770;9.250;2022-09-09T15:59:08;19.00;99.90
67273;DHT22;54190;49.770;9.250;2022-09-09T16:01:35;18.90;99.90
67273;DHT22;54190;49.770;9.250;2022-09-09T16:04:01;18.90;99.90
67273;DHT22;54190;49.770;9.250;2022-09-09T16:06:28;18.80;99.90
67273;DHT22;54190;49.770;9.250;2022-09-09T16:08:56;18.80;99.90
67273;DHT22;54190;49.770;9.250;2022-09-09T16:11:24;18.80;99.90
67273;DHT22;54190;49.770;9.250;2022-09-09T16:13:52;18.80;99.90
67273;DHT22;54190;49.770;9.250;2022-09-09T16:16:21;18.70;99.90
67273;DHT22;54190;49.770;9.250;2022-09-09T16:18:52;18.70;99.90
67273;DHT22;54190;49.770;9.250;2022-09-09T16:23:51;18.60;99.90
67273;DHT22;54190;49.770;9.250;2022-09-09T16:26:17;18.50;99.90
67273;DHT22;54190;49.770;9.250;2022-09-09T16:28:43;18.40;99.90
67273;DHT22;54190;49.770;9.250;2022-09-09T16:31:11;18.30;99.90
67273;DHT22;54190;49.770;9.250;2022-09-09T16:33:39;18.30;99.90
67273;DHT22;54190;49.770;9.250;2022-09-09T16:36:11;18.30;99.90
67273;DHT22;54190;49.770;9.250;2022-09-09T16:38:38;18.20;99.90
67273;DHT22;54190;49.770;9.250;2022-09-09T16:41:05;18.20;99.90
67273;DHT22;54190;49.770;9.250;2022-09-09T16:43:32;18.10;99.90
67273;DHT22;54190;49.770;9.250;2022-09-09T16:45:58;18.10;99.90
67273;DHT22;54190;49.770;9.250;2022-09-09T16:48:27;17.90;99.90
67273;DHT22;54190;49.770;9.250;2022-09-09T16:51:05;17.80;99.90
67273;DHT22;54190;49.770;9.250;2022-09-09T16:53:32;17.80;99.90
67273;DHT22;54190;49.770;9.250;2022-09-09T16:55:57;17.70;99.90
67273;DHT22;54190;49.770;9.250;2022-09-09T16:58:23;17.60;99.90
67273;DHT22;54190;49.770;9.250;2022-09-09T17:00:49;17.50;99.90
67273;DHT22;54190;49.770;9.250;2022-09-09T17:03:16;17.40;99.90
67273;DHT22;54190;49.770;9.250;2022-09-09T17:05:42;17.30;99.90
67273;DHT22;54190;49.770;9.250;2022-09-09T17:08:10;17.30;99.90
67273;DHT22;54190;49.770;9.250;2022-09-09T17:10:41;17.30;99.90
67273;DHT22;54190;49.770;9.250;2022-09-09T17:13:07;17.30;99.90
67273;DHT22;54190;49.770;9.250;2022-09-09T17:15:33;17.30;99.90
67273;DHT22;54190;49.770;9.250;2022-09-09T17:18:00;17.30;99.90
67273;DHT22;54190;49.770;9.250;2022-09-09T17:20:26;17.40;99.90
67273;DHT22;54190;49.770;9.250;2022-09-09T17:22:51;17.40;99.90
67273;DHT22;54190;49.770;9.250;2022-09-09T17:25:17;17.40;99.90
67273;DHT22;54190;49.770;9.250;2022-09-09T17:27:43;17.40;99.90
67273;DHT22;54190;49.770;9.250;2022-09-09T17:30:10;17.50;99.90
67273;DHT22;54190;49.770;9.250;2022-09-09T17:32:35;17.50;99.90
67273;DHT22;54190;49.770;9.250;2022-09-09T17:35:02;17.40;99.90
67273;DHT22;54190;49.770;9.250;2022-09-09T17:37:28;17.40;99.90
67273;DHT22;54190;49.770;9.250;2022-09-09T17:39:53;17.40;99.90
67273;DHT22;54190;49.770;9.250;2022-09-09T17:42:19;17.40;99.90
67273;DHT22;54190;49.770;9.250;2022-09-09T17:44:45;17.40;99.90
67273;DHT22;54190;49.770;9.250;2022-09-09T17:47:10;17.40;99.90
67273;DHT22;54190;49.770;9.250;2022-09-09T17:49:36;17.30;99.90
67273;DHT22;54190;49.770;9.250;2022-09-09T17:52:02;17.20;99.90